Time;durP1;ratioP1;P1;durP2;ratioP2;P2;SDS_P1;SDS_P2;PMS_P1;PMS_P2;Temp;Humidity;BMP_temperature;BMP_pressure;BME280_temperature;BME280_humidity;BME280_pressure;Samples;Min_cycle;Max_cycle;Signal;HPM_P1;HPM_P2
2023/05/05 00:00:21;;;;;;;4.50;3.70;;;;;;;4.84;81.74;98149.31;6049554;29;20269;-43
2023/05/05 00:03:24;;;;;;;4.70;3.67;;;;;;;4.81;82.27;98141.78;6050403;29;20234;-44
2023/05/05 00:06:30;;;;;;;3.93;3.20;;;;;;;4.77;82.56;98138.72;6051966;29;20713;-42
2023/05/05 00:09:32;;;;;;;4.40;3.70;;;;;;;4.74;83.04;98133.03;6050818;29;20329;-44
2023/05/05 00:12:35;;;;;;;5.27;3.93;;;;;;;4.72;82.79;98133.19;6042530;29;20787;-42
2023/05/05 00:15:37;;;;;;;5.00;3.90;;;;;;;4.73;82.26;98123.44;6062864;29;20255;-43
2023/05/05 00:18:39;;;;;;;5.90;3.77;;;;;;;4.70;82.53;98127.31;6068832;29;20260;-43
2023/05/05 00:21:41;;;;;;;5.57;3.70;;;;;;;4.71;82.57;98121.00;6074475;29;20246;-44
2023/05/05 00:24:43;;;;;;;4.33;3.60;;;;;;;4.76;82.29;98107.25;6074099;29;20300;-43
2023/05/05 00:27:46;;;;;;;3.83;3.23;;;;;;;4.78;82.19;98113.97;6074326;29;20658;-41
2023/05/05 00:30:49;;;;;;;4.37;3.80;;;;;;;4.70;81.62;98108.84;6074026;29;20243;-43
2023/05/05 00:33:51;;;;;;;4.13;3.73;;;;;;;4.70;82.01;98108.03;6073648;29;20241;-43
2023/05/05 00:36:53;;;;;;;5.90;3.40;;;;;;;4.65;82.06;98104.13;6073006;29;20244;-43
2023/05/05 00:39:56;;;;;;;7.13;4.37;;;;;;;4.64;82.01;98104.34;6054912;29;20242;-42
2023/05/05 00:42:58;;;;;;;4.43;4.00;;;;;;;4.58;81.94;98086.63;6074692;29;20241;-43
2023/05/05 00:46:23;;;;;;;6.63;4.03;;;;;;;4.54;82.48;98094.13;6073502;29;20319;-42
2023/05/05 00:49:25;;;;;;;8.07;4.77;;;;;;;4.46;82.99;98096.09;6073234;29;20239;-45
2023/05/05 00:52:28;;;;;;;7.23;4.27;;;;;;;4.42;83.38;98093.00;6057858;29;20236;-42
2023/05/05 00:55:32;;;;;;;5.93;3.90;;;;;;;4.37;83.21;98080.41;6056228;29;20647;-43
2023/05/05 00:58:35;;;;;;;4.97;3.90;;;;;;;4.41;82.73;98086.09;6063828;29;20244;-41
2023/05/05 01:01:37;;;;;;;7.47;3.70;;;;;;;4.43;82.79;98084.09;6074298;29;20339;-45
2023/05/05 01:04:39;;;;;;;5.97;4.17;;;;;;;4.39;82.86;98075.75;6075764;29;20244;-44
2023/05/05 01:07:42;;;;;;;4.07;3.67;;;;;;;4.32;83.53;98080.16;6075774;29;20236;-42
2023/05/05 01:10:51;;;;;;;6.87;4.07;;;;;;;4.30;83.56;98073.47;6070129;29;20241;-43
2023/05/05 01:14:13;;;;;;;7.27;4.10;;;;;;;4.22;83.49;98063.84;6073720;29;20360;-42
2023/05/05 01:17:23;;;;;;;5.93;3.97;;;;;;;4.25;83.90;98065.31;6072824;29;20456;-43
2023/05/05 01:20:32;;;;;;;4.70;4.00;;;;;;;4.21;83.92;98072.78;6072183;29;20244;-44
2023/05/05 01:23:42;;;;;;;4.90;4.10;;;;;;;4.19;84.22;98073.97;6072709;29;20236;-42
2023/05/05 01:27:15;;;;;;;5.17;3.87;;;;;;;4.19;83.99;98066.06;6061037;29;20739;-42
2023/05/05 01:31:16;;;;;;;5.17;3.87;;;;;;;4.17;83.82;98063.63;6060980;29;20241;-45
2023/05/05 01:34:34;;;;;;;8.67;4.63;;;;;;;4.14;84.04;98067.47;6022987;29;20763;-42
2023/05/05 01:37:48;;;;;;;4.97;3.90;;;;;;;4.12;84.35;98060.75;6023337;29;20249;-42
2023/05/05 01:41:08;;;;;;;4.67;4.17;;;;;;;4.09;84.98;98064.59;6020059;29;20336;-43
2023/05/05 01:44:14;;;;;;;4.93;4.37;;;;;;;4.09;84.99;98061.94;6023597;29;20328;-42
2023/05/05 01:47:20;;;;;;;4.33;3.93;;;;;;;3.87;85.15;98026.88;6024537;29;20245;-41
2023/05/05 01:50:23;;;;;;;7.93;4.27;;;;;;;3.86;85.21;98027.91;6021001;29;20266;-43
2023/05/05 01:53:26;;;;;;;7.17;4.67;;;;;;;4.03;84.99;98051.34;6016283;29;20242;-43
2023/05/05 01:56:30;;;;;;;5.07;4.30;;;;;;;4.09;85.14;98059.31;6022124;29;20797;-44
2023/05/05 01:59:33;;;;;;;5.97;4.20;;;;;;;4.07;85.43;98057.84;5998626;29;20242;-43
2023/05/05 02:02:38;;;;;;;9.23;3.93;;;;;;;3.90;85.60;98028.34;6008372;29;20494;-42
2023/05/05 02:05:42;;;;;;;5.67;4.40;;;;;;;4.10;85.69;98054.84;6068849;29;20326;-43
2023/05/05 02:08:46;;;;;;;8.57;4.90;;;;;;;4.13;85.68;98049.19;6072316;29;20335;-43
2023/05/05 02:11:48;;;;;;;4.93;4.30;;;;;;;4.17;85.70;98042.53;6079267;29;20278;-44
2023/05/05 02:14:52;;;;;;;5.27;4.37;;;;;;;4.15;85.83;98047.19;6077404;29;20233;-47
2023/05/05 02:17:55;;;;;;;4.80;4.33;;;;;;;4.14;85.82;98035.81;6076216;29;20343;-44
2023/05/05 02:20:57;;;;;;;7.20;4.33;;;;;;;4.14;86.01;98032.38;6077301;29;20256;-43
2023/05/05 02:24:00;;;;;;;7.17;4.37;;;;;;;4.17;85.99;98036.44;6061694;29;20604;-42
2023/05/05 02:27:04;;;;;;;6.30;4.37;;;;;;;4.23;85.98;98035.66;6075112;29;20693;-45
2023/05/05 02:30:10;;;;;;;4.70;3.90;;;;;;;4.25;85.66;98042.38;6075956;29;20555;-43
2023/05/05 02:33:16;;;;;;;8.60;3.90;;;;;;;4.22;85.64;98040.13;6058787;29;20232;-44
2023/05/05 02:36:21;;;;;;;8.73;4.30;;;;;;;4.21;86.12;98033.22;6067157;29;20581;-44
2023/05/05 02:39:42;;;;;;;8.90;4.20;;;;;;;4.22;86.19;98023.50;6063763;29;20233;-44
2023/05/05 02:42:53;;;;;;;6.57;3.97;;;;;;;4.26;85.88;98028.19;6060906;29;20235;-46
2023/05/05 02:45:59;;;;;;;6.10;4.53;;;;;;;4.26;85.83;98033.47;6064190;29;20716;-44
2023/05/05 02:49:03;;;;;;;6.80;3.80;;;;;;;4.20;86.07;98036.88;6061390;29;20260;-46
2023/05/05 02:52:06;;;;;;;5.10;4.60;;;;;;;4.18;86.50;98033.59;6076461;29;20241;-42
2023/05/05 02:55:11;;;;;;;6.20;4.40;;;;;;;4.17;86.69;98031.97;6064122;29;20379;-42
2023/05/05 02:58:41;;;;;;;6.10;4.37;;;;;;;4.14;86.58;98035.81;6059389;29;20243;-42
2023/05/05 03:02:10;;;;;;;6.10;4.17;;;;;;;4.18;86.87;98033.59;6058144;29;20739;-42
2023/05/05 03:05:18;;;;;;;9.23;4.60;;;;;;;4.19;86.72;98035.25;6059830;29;20236;-42
2023/05/05 03:08:40;;;;;;;5.73;4.30;;;;;;;4.18;86.63;98030.97;6076333;29;20334;-42
2023/05/05 03:11:49;;;;;;;4.00;3.50;;;;;;;4.16;87.18;98040.09;6060522;29;20662;-41
2023/05/05 03:14:54;;;;;;;5.37;4.33;;;;;;;4.14;86.87;98024.47;6059918;29;20246;-43
2023/05/05 03:17:59;;;;;;;5.30;4.33;;;;;;;3.94;86.90;98005.03;6075562;29;20232;-43
2023/05/05 03:21:07;;;;;;;5.37;3.87;;;;;;;4.17;86.69;98031.97;6065679;29;20236;-43
2023/05/05 03:24:14;;;;;;;4.47;3.70;;;;;;;4.05;86.55;98025.63;6066345;29;20216;-42
2023/05/05 03:27:20;;;;;;;5.53;4.13;;;;;;;4.12;86.53;98034.38;6074605;29;20220;-42
2023/05/05 03:30:22;;;;;;;8.50;4.10;;;;;;;4.08;86.39;98038.41;6060224;29;20228;-42
2023/05/05 03:33:25;;;;;;;5.33;3.60;;;;;;;3.96;86.58;98024.94;6059117;29;20236;-43
2023/05/05 03:36:33;;;;;;;6.70;3.70;;;;;;;4.06;86.61;98037.78;6075851;29;20240;-43
2023/05/05 03:39:36;;;;;;;5.00;4.17;;;;;;;4.03;86.56;98036.31;6058796;29;20252;-42
2023/05/05 03:42:39;;;;;;;3.97;3.67;;;;;;;4.01;86.82;98037.53;6074445;29;20232;-42
2023/05/05 03:45:41;;;;;;;7.03;4.50;;;;;;;3.95;87.11;98036.50;6054653;29;20595;-44
2023/05/05 03:48:44;;;;;;;4.77;4.27;;;;;;;3.92;87.19;98036.84;6059123;29;20246;-42
2023/05/05 03:51:47;;;;;;;5.50;4.03;;;;;;;3.89;87.34;98039.88;6057870;29;20301;-42
2023/05/05 03:54:49;;;;;;;6.30;4.23;;;;;;;3.86;87.42;98043.72;6058852;29;20739;-42
2023/05/05 03:57:52;;;;;;;5.47;4.77;;;;;;;3.86;87.56;98042.91;6055701;29;20600;-42
2023/05/05 04:00:54;;;;;;;5.17;3.67;;;;;;;3.89;87.32;98047.78;6074687;29;20296;-42
2023/05/05 04:03:56;;;;;;;7.20;3.93;;;;;;;3.93;87.38;98051.66;6062030;29;20246;-43
2023/05/05 04:06:58;;;;;;;4.73;3.70;;;;;;;4.01;87.34;98056.81;6073972;29;20240;-43
2023/05/05 04:10:00;;;;;;;4.60;3.33;;;;;;;4.02;87.26;98050.53;6056041;29;20621;-43
2023/05/05 04:13:03;;;;;;;4.53;3.97;;;;;;;4.02;87.25;98055.78;6075238;29;20243;-42
2023/05/05 04:16:07;;;;;;;4.40;3.37;;;;;;;4.02;87.13;98060.25;6065943;29;20240;-42
2023/05/05 04:19:12;;;;;;;4.50;3.70;;;;;;;4.04;87.17;98061.72;6074731;29;20327;-42
2023/05/05 04:22:14;;;;;;;5.03;4.13;;;;;;;4.09;87.25;98063.78;6056470;29;20272;-43
2023/05/05 04:25:17;;;;;;;6.83;3.90;;;;;;;4.12;87.18;98058.91;6057812;29;20235;-43
2023/05/05 04:28:19;;;;;;;7.67;4.17;;;;;;;4.15;87.46;98063.00;6056476;29;20411;-44
2023/05/05 04:31:23;;;;;;;4.67;4.27;;;;;;;4.17;87.64;98070.72;6060091;29;20236;-42
2023/05/05 04:34:25;;;;;;;5.10;4.10;;;;;;;4.19;88.03;98071.31;6064374;29;20237;-46
2023/05/05 04:37:28;;;;;;;5.33;4.57;;;;;;;4.22;88.71;98076.22;6064194;29;20239;-42
2023/05/05 04:40:32;;;;;;;8.90;5.23;;;;;;;4.32;88.96;98071.44;6071556;29;20256;-42
2023/05/05 04:43:34;;;;;;;7.10;4.67;;;;;;;4.25;88.73;98058.22;6074734;29;20764;-44
2023/05/05 04:46:37;;;;;;;6.77;4.80;;;;;;;4.42;88.61;98076.38;6059635;29;20240;-44
2023/05/05 04:49:39;;;;;;;5.70;4.33;;;;;;;4.47;88.34;98087.97;6056547;29;20240;-43
2023/05/05 04:52:41;;;;;;;4.67;3.87;;;;;;;4.54;88.61;98094.13;6055863;29;20363;-43
2023/05/05 04:55:43;;;;;;;4.83;4.33;;;;;;;4.61;88.22;98092.34;6064584;29;20748;-43
2023/05/05 04:58:45;;;;;;;4.77;3.90;;;;;;;4.66;88.13;98091.75;6072249;29;20244;-43
2023/05/05 05:01:47;;;;;;;4.80;4.30;;;;;;;4.66;88.00;98097.03;6050344;29;20275;-44
2023/05/05 05:04:49;;;;;;;8.30;4.77;;;;;;;4.68;88.04;98100.31;6066553;29;20850;-43
2023/05/05 05:07:51;;;;;;;5.03;3.93;;;;;;;4.73;87.98;98099.69;6058584;29;20241;-43
2023/05/05 05:10:53;;;;;;;6.80;4.40;;;;;;;4.78;88.00;98092.84;6067417;29;20291;-43
2023/05/05 05:13:56;;;;;;;5.53;4.20;;;;;;;4.80;87.78;98098.75;6068295;29;20253;-42
2023/05/05 05:16:58;;;;;;;6.23;4.67;;;;;;;4.84;87.65;98100.00;6073367;29;20276;-48
2023/05/05 05:20:03;;;;;;;5.13;4.10;;;;;;;4.88;87.90;98103.88;6071763;29;20242;-44
2023/05/05 05:23:07;;;;;;;7.27;4.57;;;;;;;4.95;87.86;98095.97;6073397;29;20742;-43
2023/05/05 05:26:15;;;;;;;4.83;4.00;;;;;;;5.00;87.75;98104.13;6056791;29;20924;-43
2023/05/05 05:29:19;;;;;;;4.80;4.10;;;;;;;5.02;87.58;98104.72;6056202;29;20255;-44
2023/05/05 05:32:22;;;;;;;4.50;4.00;;;;;;;5.05;87.59;98108.81;6056049;29;20238;-45
2023/05/05 05:35:24;;;;;;;5.70;4.33;;;;;;;5.06;87.36;98113.91;6054545;29;20237;-43
2023/05/05 05:38:26;;;;;;;4.93;4.43;;;;;;;5.11;87.47;98108.03;6072937;29;20244;-43
2023/05/05 05:41:32;;;;;;;7.27;5.03;;;;;;;5.19;87.50;98110.50;6065390;29;20233;-43
2023/05/05 05:44:34;;;;;;;6.70;5.30;;;;;;;5.28;87.20;98114.63;6063067;29;20325;-43
2023/05/05 05:47:36;;;;;;;4.40;4.00;;;;;;;5.38;87.29;98109.78;6060151;29;20740;-43
2023/05/05 05:50:39;;;;;;;5.03;4.53;;;;;;;5.48;87.20;98113.88;6076539;29;20324;-43
2023/05/05 05:53:41;;;;;;;5.10;4.47;;;;;;;5.59;87.17;98113.31;6077416;29;20245;-45
2023/05/05 05:56:43;;;;;;;4.93;4.43;;;;;;;5.76;87.77;98111.09;6078436;29;20241;-43
2023/05/05 05:59:45;;;;;;;4.70;4.30;;;;;;;5.87;87.53;98113.16;6059558;29;20246;-43
2023/05/05 06:02:47;;;;;;;4.93;4.50;;;;;;;6.02;87.62;98111.19;6078505;29;20581;-43
2023/05/05 06:05:52;;;;;;;7.83;4.30;;;;;;;6.18;87.11;98123.19;6063390;29;20722;-45
2023/05/05 06:08:56;;;;;;;5.40;4.87;;;;;;;6.42;87.68;98116.50;6060089;29;20241;-43
2023/05/05 06:11:58;;;;;;;5.07;4.57;;;;;;;6.60;87.44;98113.19;6077338;29;20245;-46
2023/05/05 06:15:00;;;;;;;4.80;4.30;;;;;;;6.87;87.13;98119.28;6077800;29;20243;-45
2023/05/05 06:18:03;;;;;;;7.47;5.07;;;;;;;7.14;87.08;98118.22;6062277;29;20579;-47
2023/05/05 06:21:05;;;;;;;8.60;5.23;;;;;;;7.48;87.08;98119.69;6060244;29;20458;-45
2023/05/05 06:24:07;;;;;;;5.73;5.17;;;;;;;7.76;86.38;98119.34;6077447;29;20287;-44
2023/05/05 06:27:09;;;;;;;5.00;4.30;;;;;;;8.01;86.04;98115.94;6067125;29;20223;-46
2023/05/05 06:30:13;;;;;;;4.83;4.00;;;;;;;8.24;85.71;98115.38;6076312;29;20685;-45
2023/05/05 06:33:15;;;;;;;4.97;4.27;;;;;;;8.51;84.93;98119.44;6073281;29;20217;-47
2023/05/05 06:36:17;;;;;;;6.50;5.03;;;;;;;8.86;83.13;98120.75;6076703;29;20229;-48
2023/05/05 06:39:19;;;;;;;5.20;4.37;;;;;;;9.22;81.44;98120.81;6067272;29;20248;-45
2023/05/05 06:42:21;;;;;;;5.90;4.87;;;;;;;9.59;80.55;98122.59;6076048;29;20248;-46
2023/05/05 06:45:26;;;;;;;5.63;4.20;;;;;;;9.93;77.15;98126.44;6059775;29;20235;-45
2023/05/05 06:48:28;;;;;;;4.70;4.10;;;;;;;10.24;77.36;98133.38;6077145;29;20254;-45
2023/05/05 06:51:30;;;;;;;7.83;4.53;;;;;;;10.52;77.56;98130.06;6075408;29;20234;-49
2023/05/05 06:54:32;;;;;;;4.47;3.43;;;;;;;10.76;76.52;98123.72;6075098;29;20239;-48
2023/05/05 06:57:35;;;;;;;5.70;4.00;;;;;;;11.10;73.13;98126.59;6063007;29;20353;-47
2023/05/05 07:00:39;;;;;;;5.83;4.57;;;;;;;11.38;73.71;98128.53;6064435;29;20238;-50
2023/05/05 07:03:42;;;;;;;5.27;4.00;;;;;;;11.67;69.89;98120.53;6063934;29;20245;-47
2023/05/05 07:06:44;;;;;;;6.00;4.20;;;;;;;11.95;68.37;98125.09;6059555;29;20239;-48
2023/05/05 07:09:47;;;;;;;7.07;4.23;;;;;;;12.26;68.07;98129.91;6074057;29;20896;-45
2023/05/05 07:12:50;;;;;;;8.77;4.50;;;;;;;12.52;63.00;98128.50;6075456;29;20608;-49
2023/05/05 07:15:53;;;;;;;6.17;4.33;;;;;;;12.72;65.60;98137.88;6076818;29;20240;-47
2023/05/05 07:18:55;;;;;;;4.77;3.50;;;;;;;12.95;65.09;98135.00;6079127;29;20238;-46
2023/05/05 07:21:57;;;;;;;4.90;3.30;;;;;;;13.06;64.38;98133.31;6080212;29;20262;-47
2023/05/05 07:24:59;;;;;;;8.13;4.67;;;;;;;13.21;61.35;98127.34;6075278;29;20376;-49
2023/05/05 07:28:02;;;;;;;3.90;3.50;;;;;;;13.40;63.26;98126.03;6074730;29;20263;-48
2023/05/05 07:31:04;;;;;;;7.30;5.03;;;;;;;13.62;57.77;98129.50;6075565;29;20271;-47
2023/05/05 07:34:06;;;;;;;5.47;3.47;;;;;;;13.78;61.40;98124.31;6076997;29;20634;-50
2023/05/05 07:37:08;;;;;;;4.30;3.83;;;;;;;13.89;60.52;98124.19;6077232;29;20368;-48
2023/05/05 07:40:11;;;;;;;5.77;4.30;;;;;;;14.06;60.10;98126.75;6074445;29;20719;-49
2023/05/05 07:43:13;;;;;;;7.43;5.53;;;;;;;14.13;58.36;98126.53;6075258;29;20244;-45
2023/05/05 07:46:15;;;;;;;7.70;4.90;;;;;;;14.24;58.48;98128.28;6074821;29;20982;-45
2023/05/05 07:49:18;;;;;;;6.43;4.73;;;;;;;14.15;60.32;98114.53;6073337;29;20372;-45
2023/05/05 07:52:20;;;;;;;6.10;4.10;;;;;;;14.24;61.44;98130.94;6075036;29;20539;-45
2023/05/05 07:55:43;;;;;;;5.00;3.97;;;;;;;14.18;63.06;98115.88;6062648;29;20231;-45
2023/05/05 07:58:45;;;;;;;6.93;4.80;;;;;;;14.39;61.72;98119.56;6063547;29;20244;-44
2023/05/05 08:01:47;;;;;;;5.40;3.93;;;;;;;14.48;62.29;98119.91;6067220;29;20823;-46
2023/05/05 08:04:49;;;;;;;8.60;6.40;;;;;;;14.59;57.88;98119.75;6074718;29;20445;-45
2023/05/05 08:07:51;;;;;;;9.90;7.30;;;;;;;14.57;55.33;98095.03;6074869;29;20599;-45
2023/05/05 08:10:53;;;;;;;12.33;7.37;;;;;;;14.83;55.63;98112.13;6073215;29;20641;-46
2023/05/05 08:13:55;;;;;;;7.63;6.27;;;;;;;14.99;56.99;98113.03;6076397;29;20240;-46
2023/05/05 08:16:57;;;;;;;11.43;8.07;;;;;;;15.10;56.57;98108.53;6074732;29;20236;-47
2023/05/05 08:19:59;;;;;;;8.50;6.47;;;;;;;15.21;54.48;98108.31;6073921;29;20651;-46
2023/05/05 08:23:01;;;;;;;8.97;6.40;;;;;;;15.15;54.45;98092.47;6074680;29;20232;-45
2023/05/05 08:26:05;;;;;;;8.27;6.70;;;;;;;15.35;52.16;98105.97;6071468;29;20309;-46
2023/05/05 08:29:07;;;;;;;9.83;7.43;;;;;;;15.45;52.47;98111.38;6063418;29;20284;-46
2023/05/05 08:32:09;;;;;;;7.20;6.13;;;;;;;15.51;53.89;98101.47;6076941;29;20315;-46
2023/05/05 08:35:11;;;;;;;11.27;7.23;;;;;;;15.63;51.47;98109.31;6074642;29;20236;-46
2023/05/05 08:38:14;;;;;;;7.60;6.87;;;;;;;15.48;52.58;98100.13;6073385;29;20343;-45
2023/05/05 08:41:17;;;;;;;10.30;7.97;;;;;;;15.72;51.72;98113.13;6073312;29;20320;-45
2023/05/05 08:44:19;;;;;;;7.87;5.70;;;;;;;15.81;54.77;98105.34;6073721;29;20724;-46
2023/05/05 08:47:21;;;;;;;7.40;5.93;;;;;;;15.97;53.60;98107.00;6074505;29;20247;-46
2023/05/05 08:50:26;;;;;;;7.60;5.87;;;;;;;16.02;53.30;98123.13;6073308;29;20314;-46
2023/05/05 08:53:42;;;;;;;7.47;6.50;;;;;;;15.90;50.25;98083.06;6056291;29;20604;-45
2023/05/05 08:56:46;;;;;;;9.10;6.90;;;;;;;16.15;50.82;98111.84;6077893;29;20712;-44
2023/05/05 08:59:48;;;;;;;10.70;6.53;;;;;;;16.18;50.21;98115.91;6073663;29;20243;-46
2023/05/05 09:02:53;;;;;;;7.00;6.30;;;;;;;16.28;50.33;98115.09;6073635;29;20231;-46
2023/05/05 09:05:56;;;;;;;8.80;7.43;;;;;;;16.33;49.64;98115.09;6072408;29;20318;-45
2023/05/05 09:09:00;;;;;;;8.33;6.27;;;;;;;16.19;47.72;98109.44;6074060;29;20242;-47
2023/05/05 09:12:02;;;;;;;7.23;5.87;;;;;;;16.19;48.87;98110.25;6073326;29;20236;-45
2023/05/05 09:15:09;;;;;;;7.77;6.33;;;;;;;16.35;51.47;98113.75;6071692;29;20587;-45
2023/05/05 09:18:28;;;;;;;8.33;5.87;;;;;;;16.40;48.88;98105.72;6073663;29;20349;-44
2023/05/05 09:21:31;;;;;;;9.97;7.60;;;;;;;16.30;48.50;98108.38;6069297;29;20336;-46
2023/05/05 09:24:33;;;;;;;7.93;7.13;;;;;;;16.11;49.16;98100.03;6072852;29;20240;-47
2023/05/05 09:27:37;;;;;;;7.53;6.77;;;;;;;16.25;48.49;98100.31;6072877;29;20331;-46
2023/05/05 09:30:41;;;;;;;10.10;7.63;;;;;;;16.41;48.93;98101.13;6072871;29;20244;-45
2023/05/05 09:33:43;;;;;;;13.00;7.20;;;;;;;16.47;49.45;98100.06;6074330;29;20267;-45
2023/05/05 09:36:46;;;;;;;8.50;6.63;;;;;;;16.63;49.43;98104.34;6072577;29;20238;-47
2023/05/05 09:39:54;;;;;;;11.40;9.57;;;;;;;16.67;48.06;98104.63;6071899;29;20237;-46
2023/05/05 09:43:02;;;;;;;8.53;7.63;;;;;;;16.68;48.81;98090.88;6073138;29;20323;-44
2023/05/05 09:46:06;;;;;;;11.10;6.67;;;;;;;16.83;49.69;98095.47;6072908;29;20243;-45
2023/05/05 09:49:19;;;;;;;13.10;9.00;;;;;;;17.18;48.62;98104.53;6072681;29;20771;-45
2023/05/05 09:52:21;;;;;;;11.53;8.20;;;;;;;17.00;48.29;98097.88;6072535;29;20248;-46
2023/05/05 09:55:23;;;;;;;9.90;7.73;;;;;;;17.05;48.02;98092.47;6073482;29;20240;-46
2023/05/05 09:58:27;;;;;;;10.60;7.73;;;;;;;17.11;50.19;98080.59;6073073;29;20732;-45
2023/05/05 10:01:30;;;;;;;9.27;8.10;;;;;;;17.25;47.42;98102.38;6071611;29;20723;-47
2023/05/05 10:04:32;;;;;;;10.80;8.00;;;;;;;17.32;46.68;98096.69;6071969;29;20235;-46
2023/05/05 10:07:35;;;;;;;8.73;7.73;;;;;;;17.42;47.09;98097.44;6073283;29;20238;-48
2023/05/05 10:10:44;;;;;;;10.10;8.63;;;;;;;17.33;47.15;98107.19;6069579;29;20790;-46
2023/05/05 10:13:47;;;;;;;9.93;8.20;;;;;;;17.10;46.95;98097.84;6075784;29;20607;-45
2023/05/05 10:16:52;;;;;;;9.00;8.00;;;;;;;17.19;46.86;98098.06;6065923;29;20348;-47
2023/05/05 10:19:56;;;;;;;8.73;6.67;;;;;;;17.35;48.57;98098.84;6072376;29;22242;-45
2023/05/05 10:23:04;;;;;;;8.17;6.90;;;;;;;17.55;46.50;98096.06;6075321;29;20230;-47
2023/05/05 10:26:09;;;;;;;9.07;7.73;;;;;;;17.50;46.53;98094.19;6071524;29;20252;-45
2023/05/05 10:29:19;;;;;;;10.03;7.63;;;;;;;17.46;46.95;98097.72;6073843;29;20312;-46
2023/05/05 10:32:27;;;;;;;9.67;8.63;;;;;;;17.60;49.03;98096.03;6064986;29;20236;-46
2023/05/05 10:35:52;;;;;;;9.63;7.53;;;;;;;17.83;48.82;98089.19;6074788;29;20240;-47
2023/05/05 10:38:56;;;;;;;8.73;7.20;;;;;;;18.04;48.05;98076.41;6075656;29;20288;-49
2023/05/05 10:42:03;;;;;;;11.43;8.43;;;;;;;18.26;45.48;98086.75;6075382;29;20741;-49
2023/05/05 10:45:06;;;;;;;8.07;7.20;;;;;;;17.70;46.39;98047.47;6075783;29;20952;-48
2023/05/05 10:48:21;;;;;;;8.67;6.87;;;;;;;18.13;47.23;98076.59;6076307;29;20223;-46
2023/05/05 10:51:31;;;;;;;10.37;7.60;;;;;;;18.36;45.23;98075.88;6076520;29;20681;-47
2023/05/05 10:55:15;;;;;;;7.53;6.80;;;;;;;18.52;46.07;98063.88;6076461;29;20725;-46
2023/05/05 10:58:38;;;;;;;7.53;5.93;;;;;;;18.54;46.26;98060.91;6076234;29;20240;-51
2023/05/05 11:01:59;;;;;;;9.10;7.03;;;;;;;18.23;43.08;98069.25;6076114;29;20237;-47
2023/05/05 11:05:05;;;;;;;7.47;5.33;;;;;;;18.36;44.91;98058.91;6078865;29;20240;-47
2023/05/05 11:08:25;;;;;;;7.63;4.87;;;;;;;18.52;41.66;98046.88;6075318;29;20236;-47
2023/05/05 11:12:03;;;;;;;6.00;4.90;;;;;;;18.60;42.93;98051.66;6075128;29;20605;-49
2023/05/05 11:15:30;;;;;;;4.70;4.20;;;;;;;18.84;43.69;98048.22;6080878;29;20267;-49
2023/05/05 11:18:35;;;;;;;7.43;5.60;;;;;;;19.12;42.41;98049.28;6075071;29;20240;-47
2023/05/05 11:22:00;;;;;;;7.63;5.33;;;;;;;19.07;41.89;98055.53;6075387;29;20651;-46
2023/05/05 11:25:34;;;;;;;6.23;5.63;;;;;;;19.06;44.18;98038.53;6075314;29;20240;-46
2023/05/05 11:29:03;;;;;;;7.50;6.43;;;;;;;19.29;42.58;98028.78;6074999;29;20988;-51
2023/05/05 11:32:16;;;;;;;9.67;6.27;;;;;;;19.26;41.82;98023.97;6075122;29;20239;-46
2023/05/05 11:35:18;;;;;;;6.13;5.50;;;;;;;19.42;42.57;98026.47;6075501;29;20651;-47
2023/05/05 11:39:01;;;;;;;8.53;5.90;;;;;;;19.58;41.20;98017.06;6074158;29;20239;-49
2023/05/05 11:42:27;;;;;;;7.07;5.00;;;;;;;19.45;41.99;97998.84;6072895;29;20281;-47
2023/05/05 11:45:30;;;;;;;6.00;5.40;;;;;;;19.59;42.09;98021.34;6073984;29;20229;-46
2023/05/05 11:48:44;;;;;;;10.57;6.70;;;;;;;19.55;42.02;97998.72;6075321;29;20232;-49
2023/05/05 11:51:58;;;;;;;8.70;6.30;;;;;;;19.70;41.52;98014.72;6074703;29;20239;-51
2023/05/05 11:55:00;;;;;;;8.87;6.80;;;;;;;19.27;41.45;98014.78;6057981;29;20228;-49
2023/05/05 11:58:17;;;;;;;6.03;5.43;;;;;;;19.33;42.68;98019.00;6074761;29;20383;-49
2023/05/05 12:01:19;;;;;;;7.70;6.23;;;;;;;19.54;41.61;98013.31;6076133;29;20294;-50
2023/05/05 12:04:21;;;;;;;6.63;5.20;;;;;;;19.47;41.44;98015.59;6074470;29;20239;-48
2023/05/05 12:07:26;;;;;;;6.27;4.90;;;;;;;19.37;41.29;97999.53;6073376;29;20720;-48
2023/05/05 12:10:29;;;;;;;6.57;5.27;;;;;;;19.60;41.60;98009.47;6070176;29;20233;-47
2023/05/05 12:13:31;;;;;;;5.53;4.60;;;;;;;19.63;42.11;97981.88;6079123;29;20251;-48
2023/05/05 12:16:33;;;;;;;5.00;4.30;;;;;;;19.99;42.68;98006.44;6073937;29;20274;-47
2023/05/05 12:19:35;;;;;;;6.07;4.60;;;;;;;19.92;43.41;98007.94;6074238;29;20375;-49
2023/05/05 12:22:38;;;;;;;5.57;4.87;;;;;;;19.79;42.54;97977.84;6074612;29;20694;-48
2023/05/05 12:25:40;;;;;;;5.20;4.37;;;;;;;19.99;42.12;98000.25;6075211;29;20331;-50
2023/05/05 12:28:47;;;;;;;5.50;4.87;;;;;;;20.08;41.75;97993.06;6078342;29;20246;-50
2023/05/05 12:31:49;;;;;;;6.17;5.10;;;;;;;20.04;40.46;97997.44;6073163;29;20263;-50
2023/05/05 12:34:53;;;;;;;5.03;4.20;;;;;;;19.98;40.89;97996.75;6073931;29;20708;-49
2023/05/05 12:37:55;;;;;;;7.53;4.50;;;;;;;19.99;40.74;97994.84;6073081;29;20240;-48
2023/05/05 12:40:57;;;;;;;5.53;4.30;;;;;;;20.20;40.02;97987.22;6062704;29;20277;-48
2023/05/05 12:44:01;;;;;;;7.63;4.50;;;;;;;20.00;39.55;97982.91;6051208;29;20270;-48
2023/05/05 12:47:04;;;;;;;5.13;4.13;;;;;;;19.92;40.03;97981.69;6070435;29;20244;-47
2023/05/05 12:50:06;;;;;;;6.83;4.73;;;;;;;19.87;39.92;97979.06;6073759;29;20239;-50
2023/05/05 12:53:21;;;;;;;5.73;3.40;;;;;;;19.80;40.28;97979.47;6073547;29;20229;-48
2023/05/05 12:56:29;;;;;;;3.87;3.10;;;;;;;19.95;41.85;97972.19;6073751;29;20295;-49
2023/05/05 12:59:31;;;;;;;4.53;3.23;;;;;;;19.89;40.63;97947.13;6061324;29;20721;-50
2023/05/05 13:02:34;;;;;;;5.00;3.70;;;;;;;20.13;38.73;97970.53;6062565;29;20244;-48
2023/05/05 13:05:36;;;;;;;4.33;3.93;;;;;;;20.03;37.18;97961.50;6066220;29;20347;-47
2023/05/05 13:08:42;;;;;;;5.70;3.37;;;;;;;20.03;38.39;97956.09;6072494;29;20244;-45
2023/05/05 13:11:44;;;;;;;4.63;2.90;;;;;;;20.01;37.24;97943.97;6078259;29;20284;-50
2023/05/05 13:14:46;;;;;;;3.27;2.97;;;;;;;20.09;38.27;97944.06;6074788;29;20267;-48
2023/05/05 13:17:48;;;;;;;3.53;3.20;;;;;;;20.20;39.87;97944.72;6046572;29;20240;-50
2023/05/05 13:20:50;;;;;;;6.43;3.90;;;;;;;20.39;38.35;97943.84;6048814;29;20307;-47
2023/05/05 13:23:52;;;;;;;5.00;3.60;;;;;;;20.52;38.19;97940.38;6050579;29;20237;-49
2023/05/05 13:27:03;;;;;;;3.33;3.00;;;;;;;20.51;38.14;97942.28;6047399;29;20609;-50
2023/05/05 13:30:06;;;;;;;5.27;3.60;;;;;;;20.30;38.42;97919.38;6051027;29;20232;-46
2023/05/05 13:33:08;;;;;;;3.97;2.77;;;;;;;20.29;40.05;97923.97;6050307;29;20228;-49
2023/05/05 13:36:10;;;;;;;3.60;3.10;;;;;;;20.36;38.63;97918.19;6049664;29;20224;-48
2023/05/05 13:39:12;;;;;;;4.63;2.70;;;;;;;20.36;38.92;97923.59;6028309;29;20233;-50
2023/05/05 13:42:14;;;;;;;3.40;2.20;;;;;;;20.48;40.20;97915.00;6049473;29;20253;-49
2023/05/05 13:45:18;;;;;;;2.80;2.60;;;;;;;20.57;38.28;97910.50;6049715;29;20239;-51
2023/05/05 13:48:21;;;;;;;4.60;2.90;;;;;;;20.41;38.49;97904.56;6050552;29;20216;-48
2023/05/05 13:51:23;;;;;;;3.23;2.80;;;;;;;20.31;37.24;97889.31;6049455;29;20228;-48
2023/05/05 13:54:25;;;;;;;4.80;3.10;;;;;;;20.29;38.89;97882.59;6049071;29;20237;-46
2023/05/05 13:57:27;;;;;;;3.03;2.47;;;;;;;20.34;39.62;97891.44;6051011;29;20285;-48
2023/05/05 14:00:30;;;;;;;5.67;2.53;;;;;;;20.30;39.35;97884.22;6049727;29;20318;-47
2023/05/05 14:03:32;;;;;;;3.53;2.77;;;;;;;20.34;40.22;97883.31;6050049;29;20570;-51
2023/05/05 14:06:34;;;;;;;6.13;2.50;;;;;;;20.33;39.61;97880.91;6053532;29;20243;-48
2023/05/05 14:09:37;;;;;;;2.50;2.30;;;;;;;20.29;40.20;97883.38;6054088;29;20234;-50
2023/05/05 14:12:39;;;;;;;4.80;2.57;;;;;;;20.35;38.83;97874.09;6056561;29;20236;-49
2023/05/05 14:15:41;;;;;;;3.97;2.60;;;;;;;20.45;39.66;97883.13;6066209;29;20239;-51
2023/05/05 14:18:43;;;;;;;7.57;2.97;;;;;;;20.37;38.29;97876.50;6085435;29;20607;-49
2023/05/05 14:21:45;;;;;;;3.17;2.70;;;;;;;20.51;38.39;97868.41;6078331;29;20616;-49
2023/05/05 14:24:47;;;;;;;3.33;2.40;;;;;;;20.60;38.92;97866.59;6080013;29;20779;-48
2023/05/05 14:27:49;;;;;;;4.00;2.87;;;;;;;20.42;39.68;97870.19;6078345;29;20232;-50
2023/05/05 14:30:51;;;;;;;3.73;2.60;;;;;;;20.24;39.13;97869.97;6077624;29;20709;-51
2023/05/05 14:33:53;;;;;;;3.63;2.93;;;;;;;20.24;38.59;97861.03;6081940;29;20232;-52
2023/05/05 14:36:56;;;;;;;4.80;3.00;;;;;;;20.28;39.50;97862.84;6079952;29;20296;-50